Terminal Aerodrome Forecast
Issued by NWS

Home | Current Version | Previous Version | Text Only | Print | Product List | Glossary On
Versions: 1 2 3 4 5 6 7 8 9 10 11 12 13 14 15 16 17 18 19 20 21 22 23 24
000
FTUS46 KSEW 212300
TAFSEA
TAF
KSEA 212320Z 2200/2306 18012KT P6SM BKN030 BKN060
     FM220300 16012KT P6SM -RA BKN030 OVC040
     FM220900 17015G25KT P6SM RA OVC030
     FM221800 18012KT P6SM -SHRA BKN030 OVC060=

USA.gov is the U.S. government's official web portal to all federal, state and local government web resources and services.